createdAt,value
2018-04-25T00:00:38.217Z,18.96
2018-04-25T00:04:40.691Z,18.91
2018-04-25T00:08:43.181Z,18.86
2018-04-25T00:12:45.682Z,18.83
2018-04-25T00:16:48.142Z,18.79
2018-04-25T00:20:50.622Z,18.74
2018-04-25T00:24:53.099Z,18.69
2018-04-25T00:28:55.557Z,18.61
2018-04-25T00:32:58.032Z,18.57
2018-04-25T00:37:00.510Z,18.53
2018-04-25T00:41:03.018Z,18.48
2018-04-25T00:45:05.471Z,18.46
2018-04-25T00:49:07.989Z,18.43
2018-04-25T00:53:10.470Z,18.39
2018-04-25T00:57:12.938Z,18.34
2018-04-25T01:01:15.494Z,18.27
2018-04-25T01:05:17.950Z,18.19
2018-04-25T01:09:20.405Z,18.14
2018-04-25T01:13:22.887Z,18.09
2018-04-25T01:17:25.358Z,18.05
2018-04-25T01:21:27.830Z,18.00
2018-04-25T01:25:31.149Z,17.93
2018-04-25T01:29:33.605Z,17.85
2018-04-25T01:33:41.974Z,17.79
2018-04-25T01:37:47.915Z,17.75
2018-04-25T01:41:50.373Z,17.71
2018-04-25T01:46:25.312Z,17.67
2018-04-25T01:50:32.661Z,17.63
2018-04-25T01:54:47.043Z,17.57
2018-04-25T01:59:01.220Z,17.51
2018-04-25T02:03:03.161Z,17.47
2018-04-25T02:07:05.622Z,17.43
2018-04-25T02:11:08.110Z,17.39
2018-04-25T02:15:10.629Z,17.34
2018-04-25T02:19:13.101Z,17.29
2018-04-25T02:23:15.619Z,17.24
2018-04-25T02:27:18.107Z,17.19
2018-04-25T02:31:20.576Z,17.14
2018-04-25T02:35:23.075Z,17.09
2018-04-25T02:39:25.572Z,17.02
2018-04-25T02:43:28.051Z,16.98
2018-04-25T02:47:30.541Z,16.92
2018-04-25T02:51:33.055Z,16.85
2018-04-25T02:55:35.541Z,16.82
2018-04-25T02:59:37.995Z,16.73
2018-04-25T03:03:40.503Z,16.64
2018-04-25T03:07:42.996Z,16.60
2018-04-25T03:11:45.470Z,16.59
2018-04-25T03:15:47.939Z,16.54
2018-04-25T03:19:50.414Z,16.50
2018-04-25T03:23:52.934Z,16.48
2018-04-25T03:27:55.392Z,16.47
2018-04-25T03:31:57.876Z,16.44
2018-04-25T03:36:00.375Z,16.44
2018-04-25T03:40:02.871Z,16.42
2018-04-25T03:44:05.363Z,16.41
2018-04-25T03:48:07.844Z,16.41
2018-04-25T03:52:10.330Z,16.40
2018-04-25T03:56:12.812Z,16.38
2018-04-25T04:00:15.274Z,16.36
2018-04-25T04:04:17.758Z,16.29
2018-04-25T04:08:20.273Z,16.23
2018-04-25T04:12:22.728Z,16.18
2018-04-25T04:16:25.238Z,16.17
2018-04-25T04:20:27.720Z,16.18
2018-04-25T04:24:30.206Z,16.19
2018-04-25T04:28:32.687Z,16.19
2018-04-25T04:32:35.193Z,16.19
2018-04-25T04:36:37.712Z,16.21
2018-04-25T04:40:40.167Z,16.21
2018-04-25T04:44:42.666Z,16.23
2018-04-25T04:48:45.128Z,16.23
2018-04-25T04:52:47.632Z,16.23
2018-04-25T04:56:50.113Z,16.24
2018-04-25T05:00:52.607Z,16.27
2018-04-25T05:04:55.087Z,16.28
2018-04-25T05:08:57.582Z,16.32
2018-04-25T05:13:00.078Z,16.43
2018-04-25T05:17:02.567Z,16.50
2018-04-25T05:21:05.057Z,16.57
2018-04-25T05:25:07.556Z,16.68
2018-04-25T05:29:10.046Z,16.84
2018-04-25T05:33:12.506Z,17.03
2018-04-25T05:37:14.995Z,17.17
2018-04-25T05:41:17.479Z,17.30
2018-04-25T05:45:19.938Z,17.42
2018-04-25T05:49:22.418Z,17.55
2018-04-25T05:53:24.881Z,17.67
2018-04-25T05:57:27.365Z,17.79
2018-04-25T06:01:29.851Z,17.92
2018-04-25T06:05:32.315Z,18.10
2018-04-25T06:09:34.812Z,18.21
2018-04-25T06:13:37.298Z,18.32
2018-04-25T06:17:39.784Z,18.45
2018-04-25T06:21:42.252Z,18.63
2018-04-25T06:25:44.767Z,18.82
2018-04-25T06:29:47.302Z,18.92
2018-04-25T06:33:49.796Z,19.03
2018-04-25T06:37:52.290Z,19.18
2018-04-25T06:41:54.783Z,19.38
2018-04-25T06:45:57.264Z,19.51
2018-04-25T06:49:59.733Z,19.63
2018-04-25T06:54:02.230Z,19.77
2018-04-25T06:58:04.726Z,19.92
2018-04-25T07:02:07.183Z,20.08
2018-04-25T07:06:09.666Z,20.22
2018-04-25T07:10:12.147Z,20.39
2018-04-25T07:14:14.613Z,20.56
2018-04-25T07:18:17.091Z,20.69
2018-04-25T07:22:19.579Z,20.88
2018-04-25T07:26:22.063Z,21.03
2018-04-25T07:30:24.566Z,21.23
2018-04-25T07:34:27.038Z,21.37
2018-04-25T07:38:29.534Z,21.62
2018-04-25T07:42:32.005Z,21.86
2018-04-25T07:46:34.492Z,22.02
2018-04-25T07:50:36.971Z,22.16
2018-04-25T07:54:39.462Z,22.36
2018-04-25T07:58:41.922Z,22.51
2018-04-25T08:02:44.406Z,22.66
2018-04-25T08:06:46.893Z,22.87
2018-04-25T08:10:49.354Z,23.07
2018-04-25T08:19:45.554Z,23.32
2018-04-25T08:23:49.050Z,23.48
2018-04-25T08:27:51.476Z,23.57
2018-04-25T08:31:53.936Z,23.67
2018-04-25T08:35:56.414Z,23.84
2018-04-25T08:39:58.881Z,24.06
2018-04-25T08:44:01.360Z,24.25
2018-04-25T08:48:03.847Z,24.35
2018-04-25T08:52:06.327Z,24.49
2018-04-25T08:56:08.771Z,24.66
2018-04-25T09:00:11.246Z,24.81
2018-04-25T09:04:13.728Z,24.92
2018-04-25T09:08:16.216Z,25.00
2018-04-25T09:12:18.699Z,25.16
2018-04-25T09:16:21.146Z,25.28
2018-04-25T09:20:23.653Z,25.41
2018-04-25T09:24:26.125Z,25.58
2018-04-25T09:28:28.625Z,25.69
2018-04-25T09:32:31.103Z,25.80
2018-04-25T09:36:33.559Z,25.88
2018-04-25T09:40:36.049Z,25.97
2018-04-25T09:44:38.533Z,26.09
2018-04-25T09:48:41.027Z,26.19
2018-04-25T09:52:43.506Z,26.24
2018-04-25T09:56:45.989Z,26.36
2018-04-25T10:00:53.983Z,26.49
2018-04-25T10:04:56.449Z,26.67
2018-04-25T10:08:58.981Z,26.88
2018-04-25T10:13:01.444Z,27.07
2018-04-25T10:17:04.004Z,27.29
2018-04-25T10:21:06.406Z,27.44
2018-04-25T10:25:08.912Z,27.53
2018-04-25T10:29:11.399Z,27.63
2018-04-25T10:33:13.866Z,27.67
2018-04-25T10:37:16.355Z,27.77
2018-04-25T10:41:18.811Z,27.78
2018-04-25T10:45:21.294Z,27.74
2018-04-25T10:49:23.790Z,27.68
2018-04-25T10:53:26.252Z,27.74
2018-04-25T10:57:28.727Z,27.79
2018-04-25T11:01:31.206Z,27.81
2018-04-25T11:05:33.686Z,27.91
2018-04-25T11:09:36.152Z,27.98
2018-04-25T11:13:38.637Z,27.97
2018-04-25T11:17:41.122Z,27.86
2018-04-25T11:21:43.585Z,27.76
2018-04-25T11:25:46.073Z,27.64
2018-04-25T11:29:48.531Z,27.68
2018-04-25T11:33:51.018Z,27.69
2018-04-25T11:37:53.506Z,27.73
2018-04-25T11:41:55.955Z,27.79
2018-04-25T11:45:58.453Z,27.80
2018-04-25T11:50:00.919Z,27.72
2018-04-25T11:54:03.418Z,27.74
2018-04-25T11:58:06.077Z,27.74
2018-04-25T12:02:08.574Z,27.77
2018-04-25T12:06:11.076Z,27.85
2018-04-25T12:10:13.580Z,28.01
2018-04-25T12:14:16.101Z,28.12
2018-04-25T12:18:18.680Z,28.08
2018-04-25T12:22:21.133Z,27.98
2018-04-25T12:26:23.617Z,27.94
2018-04-25T12:30:26.099Z,27.98
2018-04-25T12:34:28.592Z,27.99
2018-04-25T12:38:31.055Z,28.02
2018-04-25T12:42:33.541Z,28.06
2018-04-25T12:46:36.028Z,28.14
2018-04-25T12:50:38.487Z,28.14
2018-04-25T12:54:40.970Z,28.02
2018-04-25T12:58:43.460Z,27.97
2018-04-25T13:02:47.288Z,27.94
2018-04-25T13:06:50.096Z,27.94
2018-04-25T13:10:52.698Z,27.94
2018-04-25T13:14:55.675Z,28.05
2018-04-25T13:18:58.364Z,28.16
2018-04-25T13:23:01.200Z,28.20
2018-04-25T13:27:04.140Z,28.20
2018-04-25T13:31:06.674Z,28.20
2018-04-25T13:35:09.152Z,28.23
2018-04-25T13:39:11.638Z,28.24
2018-04-25T13:43:14.122Z,28.25
2018-04-25T13:47:16.598Z,28.17
2018-04-25T13:51:19.073Z,28.19
2018-04-25T13:55:21.555Z,28.25
2018-04-25T13:59:24.066Z,28.29
2018-04-25T14:03:26.522Z,28.19
2018-04-25T14:07:28.994Z,28.19
2018-04-25T14:11:31.455Z,28.18
2018-04-25T14:15:33.939Z,28.23
2018-04-25T14:19:36.436Z,28.30
2018-04-25T14:23:38.886Z,28.37
2018-04-25T14:27:41.362Z,28.34
2018-04-25T14:31:43.803Z,28.34
2018-04-25T14:35:46.301Z,28.40
2018-04-25T14:39:48.766Z,28.38
2018-04-25T14:43:51.265Z,28.34
2018-04-25T14:47:53.721Z,28.32
2018-04-25T14:51:56.205Z,28.30
2018-04-25T14:55:58.701Z,28.21
2018-04-25T15:00:01.172Z,28.16
2018-04-25T15:04:03.653Z,28.14
2018-04-25T15:08:06.177Z,28.09
2018-04-25T15:12:08.635Z,28.01
2018-04-25T15:16:11.115Z,27.96
2018-04-25T15:20:13.606Z,27.91
2018-04-25T15:24:16.085Z,27.85
2018-04-25T15:28:18.634Z,27.85
2018-04-25T15:32:21.076Z,27.86
2018-04-25T15:36:23.546Z,27.85
2018-04-25T15:40:26.035Z,27.82
2018-04-25T15:44:28.487Z,27.76
2018-04-25T15:48:30.972Z,27.72
2018-04-25T15:52:33.444Z,27.69
2018-04-25T15:56:35.934Z,27.66
2018-04-25T16:00:38.556Z,27.62
2018-04-25T16:04:41.214Z,27.59
2018-04-25T16:08:43.840Z,27.54
2018-04-25T16:12:46.330Z,27.51
2018-04-25T16:16:48.854Z,27.50
2018-04-25T16:20:51.533Z,27.48
2018-04-25T16:24:54.354Z,27.46
2018-04-25T16:28:56.825Z,27.40
2018-04-25T16:32:59.313Z,27.37
2018-04-25T16:37:01.810Z,27.33
2018-04-25T16:41:04.269Z,27.26
2018-04-25T16:45:06.747Z,27.18
2018-04-25T16:49:09.222Z,27.12
2018-04-25T16:53:11.697Z,27.05
2018-04-25T16:57:14.245Z,26.98
2018-04-25T17:01:16.709Z,26.90
2018-04-25T17:05:19.186Z,26.84
2018-04-25T17:09:21.667Z,26.78
2018-04-25T17:13:24.173Z,26.76
2018-04-25T17:17:26.647Z,26.72
2018-04-25T17:21:29.143Z,26.68
2018-04-25T17:25:31.634Z,26.64
2018-04-25T17:29:34.083Z,26.58
2018-04-25T17:33:36.573Z,26.52
2018-04-25T17:37:39.047Z,26.47
2018-04-25T17:41:41.528Z,26.44
2018-04-25T17:45:43.983Z,26.40
2018-04-25T17:49:46.461Z,26.35
2018-04-25T17:53:48.928Z,26.27
2018-04-25T17:57:51.402Z,26.15
2018-04-25T18:01:53.861Z,26.05
2018-04-25T18:05:56.348Z,25.95
2018-04-25T18:09:58.866Z,25.83
2018-04-25T18:14:01.350Z,25.72
2018-04-25T18:18:03.818Z,25.59
2018-04-25T18:22:06.311Z,25.47
2018-04-25T18:26:08.767Z,25.36
2018-04-25T18:30:11.261Z,25.26
2018-04-25T18:34:13.735Z,25.14
2018-04-25T18:38:16.223Z,25.02
2018-04-25T18:42:18.685Z,24.93
2018-04-25T18:46:21.180Z,24.85
2018-04-25T18:50:23.666Z,24.76
2018-04-25T18:54:26.160Z,24.70
2018-04-25T18:58:28.635Z,24.68
2018-04-25T19:02:31.091Z,24.66
2018-04-25T19:06:33.583Z,24.64
2018-04-25T19:10:36.062Z,24.58
2018-04-25T19:14:38.553Z,24.53
2018-04-25T19:18:40.998Z,24.48
2018-04-25T19:22:43.469Z,24.46
2018-04-25T19:26:45.921Z,24.42
2018-04-25T19:30:48.393Z,24.40
2018-04-25T19:34:50.876Z,24.36
2018-04-25T19:38:53.641Z,24.35
2018-04-25T19:42:56.243Z,24.34
2018-04-25T19:46:59.190Z,24.31
2018-04-25T19:51:01.706Z,24.29
2018-04-25T19:55:04.177Z,24.27
2018-04-25T19:59:06.822Z,24.23
2018-04-25T20:03:09.297Z,24.21
2018-04-25T20:07:12.102Z,24.18
2018-04-25T20:11:14.853Z,24.12
2018-04-25T20:15:18.628Z,23.90
2018-04-25T20:19:21.563Z,23.79
2018-04-25T20:23:24.191Z,23.73
2018-04-25T20:27:26.980Z,23.69
2018-04-25T20:31:29.526Z,23.66
2018-04-25T20:35:31.985Z,23.61
2018-04-25T20:39:34.469Z,23.56
2018-04-25T20:43:36.930Z,23.53
2018-04-25T20:47:39.406Z,23.46
2018-04-25T20:51:41.924Z,23.41
2018-04-25T20:55:45.419Z,23.36
2018-04-25T20:59:48.845Z,23.27
2018-04-25T21:03:57.122Z,23.24
2018-04-25T21:07:59.638Z,23.17
2018-04-25T21:12:02.110Z,23.09
2018-04-25T21:16:05.626Z,22.95
2018-04-25T21:20:09.036Z,22.84
2018-04-25T21:24:11.512Z,22.78
2018-04-25T21:28:14.014Z,22.72
2018-04-25T21:32:16.484Z,22.66
2018-04-25T21:36:18.935Z,22.60
2018-04-25T21:40:21.398Z,22.54
2018-04-25T21:44:23.882Z,22.45
2018-04-25T21:48:26.331Z,22.37
2018-04-25T21:52:28.851Z,22.31
2018-04-25T21:56:31.295Z,22.25
2018-04-25T22:00:33.767Z,22.22
2018-04-25T22:04:36.238Z,22.18
2018-04-25T22:08:38.745Z,22.16
2018-04-25T22:12:41.225Z,22.10
2018-04-25T22:16:43.691Z,22.07
2018-04-25T22:20:46.153Z,22.05
2018-04-25T22:24:48.614Z,22.00
2018-04-25T22:28:51.068Z,22.00
2018-04-25T22:32:53.566Z,21.99
2018-04-25T22:36:56.062Z,21.98
2018-04-25T22:40:58.519Z,22.00
2018-04-25T22:45:01.000Z,21.99
2018-04-25T22:49:03.481Z,21.98
2018-04-25T22:53:06.299Z,21.98
2018-04-25T22:57:08.781Z,21.96
2018-04-25T23:01:11.254Z,21.94
2018-04-25T23:05:13.715Z,21.91
2018-04-25T23:09:16.200Z,21.82
2018-04-25T23:13:18.644Z,21.76
2018-04-25T23:17:21.117Z,21.73
2018-04-25T23:21:23.599Z,21.69
2018-04-25T23:25:26.054Z,21.63
2018-04-25T23:29:28.542Z,21.58
2018-04-25T23:33:31.027Z,21.55
2018-04-25T23:37:33.505Z,21.53
2018-04-25T23:41:36.011Z,21.50
2018-04-25T23:45:38.458Z,21.47
2018-04-25T23:49:40.940Z,21.43
2018-04-25T23:53:43.398Z,21.38
2018-04-25T23:57:45.870Z,21.38
